South Bloomingville, Ohio
Current Conditions -  °F | °C
As of 1:14 PM on Thursday 18 Dec 2014 (Local Time) from KRZT Reporting Station
Overcast Overcast  
Wind Chill: -5°   Ceiling: 2300
Heat Index: -2°   Visibility: 10mi
Dew Point: -7°   Wind: 5mph
Humidity: 69%   Direction: 300°WNW
Pressure: 30.23"   Gusts: NA
Location:  39.42°N, 82.6°W
Report Text: KRZT 181814Z AUTO 30004KT 10SM OVC023 M02/M07 A3023 RMK AO2
Loading
Personal Weather Stations






























Interactive Weather Map New forecast layout! Learn more

10-Day Weather Forecast

Advertisements
Track Severe Weather on mobile